Íslenskir flugvellir

Veldu flugvelli í þeirri röð sem þeir eiga að birtast og styddu á hnappinn

Uppfært síðast 18.04.2024 - kl. 03:38

SIGMET síðustu 6 klst.

Engin SIGMET skeyti bárust síðustu 6 klst.

Reykjavík

METAR síðustu 3 klst

TímiSkeyti
2024-04-18 03.00METAR BIRK 180300Z 30003KT 9999 FEW004 SCT015 BKN043 01/01 Q1011
2024-04-18 02.00METAR BIRK 180200Z 34005KT 9999 FEW005 SCT012 BKN033 02/02 Q1011
2024-04-18 01.00METAR BIRK 180100Z 29002KT 9999 -RA SCT006 BKN015 02/02 Q1011

TAF

TAFBIRK2024-04-18 01.06Z18030330008KT 9999 -RADZ BKN015 OVC025 TX05/1815Z TN02/1803Z TEMPO 1803/1814 3000 RADZ BR BKN004 OVC007 BECMG 1814/1816 NSW SCT015 BKN025

Allur vindur er réttvísandi bæði í Metar og frá sjálfvirkum veðurstöðvum




Aðrir tengdir vefir



Þetta vefsvæði byggir á Eplica